createdAt,value
2022-10-10T00:00:05.285Z,100191.18
2022-10-10T00:02:32.003Z,100190.48
2022-10-10T00:04:58.749Z,100185.73
2022-10-10T00:07:25.346Z,100196.52
2022-10-10T00:09:52.012Z,100187.53
2022-10-10T00:12:18.642Z,100194.08
2022-10-10T00:14:45.323Z,100192.25
2022-10-10T00:17:11.998Z,100194.94
2022-10-10T00:19:38.649Z,100187.47
2022-10-10T00:22:05.326Z,100199.51
2022-10-10T00:24:31.934Z,100200.71
2022-10-10T00:26:58.579Z,100192.45
2022-10-10T00:29:25.444Z,100196.98
2022-10-10T00:31:52.084Z,100202.95
2022-10-10T00:34:18.735Z,100205.12
2022-10-10T00:36:45.378Z,100203.99
2022-10-10T00:39:11.992Z,100200.26
2022-10-10T00:41:38.652Z,100200.91
2022-10-10T00:44:13.402Z,100203.05
2022-10-10T00:46:40.207Z,100201.48
2022-10-10T00:49:17.815Z,100203.45
2022-10-10T00:51:46.411Z,100207.48
2022-10-10T00:54:13.856Z,100201.88
2022-10-10T00:56:49.088Z,100209.65
2022-10-10T00:59:15.793Z,100213.08
2022-10-10T01:01:42.610Z,100211.27
2022-10-10T01:04:28.148Z,100213.64
2022-10-10T01:06:54.848Z,100214.89
2022-10-10T01:09:21.506Z,100209.39
2022-10-10T01:12:04.231Z,100211.77
2022-10-10T01:14:52.607Z,100210.36
2022-10-10T01:17:20.851Z,100215.16
2022-10-10T01:19:59.473Z,100219.26
2022-10-10T01:22:48.288Z,100220.06
2022-10-10T01:25:18.478Z,100219.29
2022-10-10T01:27:52.198Z,100215.12
2022-10-10T01:30:23.109Z,100217.71
2022-10-10T01:32:54.412Z,100223.71
2022-10-10T01:35:44.143Z,100222.05
2022-10-10T01:38:40.272Z,100229.46
2022-10-10T01:41:10.785Z,100231.27
2022-10-10T01:43:37.547Z,100237.20
2022-10-10T01:46:10.665Z,100235.92
2022-10-10T01:48:37.384Z,100235.60
2022-10-10T01:51:15.816Z,100240.00
2022-10-10T01:53:50.250Z,100239.98
2022-10-10T01:56:38.006Z,100243.70
2022-10-10T01:59:20.546Z,100243.78
2022-10-10T02:01:55.472Z,100249.12
2022-10-10T02:04:38.843Z,100252.42
2022-10-10T02:07:09.283Z,100251.94
2022-10-10T02:09:38.244Z,100252.70
2022-10-10T02:12:05.261Z,100258.47
2022-10-10T02:14:34.269Z,100260.17
2022-10-10T02:17:00.990Z,100259.89
2022-10-10T02:19:27.921Z,100260.94
2022-10-10T02:21:54.756Z,100260.05
2022-10-10T02:24:21.727Z,100264.74
2022-10-10T02:26:59.416Z,100268.58
2022-10-10T02:29:28.505Z,100263.73
2022-10-10T02:32:23.270Z,100275.14
2022-10-10T02:34:51.964Z,100275.44
2022-10-10T02:37:18.594Z,100272.02
2022-10-10T02:39:48.090Z,100277.82
2022-10-10T02:42:15.573Z,100271.90
2022-10-10T02:44:42.238Z,100272.06
2022-10-10T02:47:09.045Z,100273.27
2022-10-10T02:49:35.842Z,100273.36
2022-10-10T02:52:02.660Z,100275.77
2022-10-10T02:54:29.256Z,100277.49
2022-10-10T02:56:56.101Z,100280.02
2022-10-10T02:59:22.781Z,100276.82
2022-10-10T03:03:09.681Z,100279.11
2022-10-10T03:05:36.537Z,100284.52
2022-10-10T03:08:04.352Z,100285.02
2022-10-10T03:10:33.691Z,100282.95
2022-10-10T03:13:00.298Z,100281.71
2022-10-10T03:15:26.962Z,100282.73
2022-10-10T03:17:53.700Z,100289.23
2022-10-10T03:20:20.444Z,100293.55
2022-10-10T03:22:47.148Z,100298.33
2022-10-10T03:25:13.828Z,100295.50
2022-10-10T03:27:40.559Z,100296.64
2022-10-10T03:30:07.915Z,100293.04
2022-10-10T03:32:34.573Z,100298.20
2022-10-10T03:35:01.258Z,100294.24
2022-10-10T03:37:28.005Z,100299.70
2022-10-10T03:39:54.576Z,100303.06
2022-10-10T03:42:21.293Z,100308.73
2022-10-10T03:44:47.934Z,100307.89
2022-10-10T03:47:14.658Z,100309.55
2022-10-10T03:49:41.269Z,100309.48
2022-10-10T03:52:07.922Z,100313.35
2022-10-10T03:54:34.554Z,100309.19
2022-10-10T03:57:01.295Z,100309.02
2022-10-10T03:59:27.943Z,100314.51
2022-10-10T04:01:54.617Z,100313.51
2022-10-10T04:04:21.339Z,100310.83
2022-10-10T04:06:47.995Z,100316.45
2022-10-10T04:09:14.650Z,100322.43
2022-10-10T04:11:41.413Z,100325.60
2022-10-10T04:14:08.101Z,100326.48
2022-10-10T04:16:34.809Z,100331.55
2022-10-10T04:19:01.421Z,100329.05
2022-10-10T04:21:28.159Z,100329.42
2022-10-10T04:23:54.854Z,100329.76
2022-10-10T04:26:21.477Z,100328.67
2022-10-10T04:28:48.329Z,100334.37
2022-10-10T04:31:14.873Z,100339.61
2022-10-10T04:33:41.621Z,100335.42
2022-10-10T04:36:08.394Z,100334.54
2022-10-10T04:38:35.089Z,100341.12
2022-10-10T04:41:01.824Z,100344.83
2022-10-10T04:43:28.486Z,100342.12
2022-10-10T04:45:57.651Z,100343.74
2022-10-10T04:48:24.669Z,100346.36
2022-10-10T04:50:55.431Z,100350.52
2022-10-10T04:53:22.125Z,100352.36
2022-10-10T04:55:48.976Z,100353.64
2022-10-10T04:58:15.588Z,100355.39
2022-10-10T05:00:42.257Z,100358.35
2022-10-10T05:03:10.237Z,100361.44
2022-10-10T05:05:37.190Z,100357.71
2022-10-10T05:08:03.894Z,100361.37
2022-10-10T05:10:30.619Z,100359.75
2022-10-10T05:12:57.342Z,100362.75
2022-10-10T05:15:24.815Z,100362.91
2022-10-10T05:17:51.522Z,100368.41
2022-10-10T05:20:18.228Z,100371.13
2022-10-10T05:22:44.835Z,100370.44
2022-10-10T05:25:11.964Z,100373.40
2022-10-10T05:27:38.608Z,100376.36
2022-10-10T05:30:05.717Z,100379.31
2022-10-10T05:32:32.365Z,100377.66
2022-10-10T05:34:59.027Z,100377.58
2022-10-10T05:37:25.703Z,100378.09
2022-10-10T05:39:54.677Z,100380.59
2022-10-10T05:42:21.616Z,100381.17
2022-10-10T05:44:48.332Z,100386.73
2022-10-10T05:47:15.246Z,100385.98
2022-10-10T05:49:41.882Z,100386.30
2022-10-10T05:52:08.826Z,100389.34
2022-10-10T05:54:36.924Z,100389.34
2022-10-10T05:57:03.580Z,100392.16
2022-10-10T05:59:30.245Z,100392.98
2022-10-10T06:01:57.402Z,100395.71
2022-10-10T06:04:24.180Z,100396.26
2022-10-10T06:06:50.823Z,100401.14
2022-10-10T06:09:17.505Z,100398.27
2022-10-10T06:11:44.155Z,100402.39
2022-10-10T06:14:10.907Z,100404.39
2022-10-10T06:16:39.382Z,100408.28
2022-10-10T06:19:06.178Z,100411.02
2022-10-10T06:21:32.762Z,100413.05
2022-10-10T06:23:59.496Z,100414.86
2022-10-10T06:26:26.172Z,100414.54
2022-10-10T06:28:52.873Z,100417.76
2022-10-10T06:31:19.793Z,100417.27
2022-10-10T06:33:46.615Z,100417.39
2022-10-10T06:36:13.417Z,100412.08
2022-10-10T06:38:40.929Z,100414.74
2022-10-10T06:41:07.818Z,100417.86
2022-10-10T06:43:34.431Z,100421.20
2022-10-10T06:46:01.175Z,100423.21
2022-10-10T06:48:29.958Z,100420.13
2022-10-10T06:51:05.147Z,100415.34
2022-10-10T06:53:32.262Z,100420.23
2022-10-10T06:55:59.108Z,100420.93
2022-10-10T06:58:26.734Z,100421.91
2022-10-10T07:00:54.357Z,100427.89
2022-10-10T07:03:21.591Z,100429.84
2022-10-10T07:05:56.119Z,100430.14
2022-10-10T07:08:23.407Z,100429.98
2022-10-10T07:10:50.089Z,100433.55
2022-10-10T07:13:16.955Z,100429.69
2022-10-10T07:15:43.697Z,100431.59
2022-10-10T07:18:10.621Z,100429.10
2022-10-10T07:20:37.635Z,100427.98
2022-10-10T07:23:04.507Z,100424.71
2022-10-10T07:25:31.296Z,100428.42
2022-10-10T07:27:58.183Z,100427.85
2022-10-10T07:30:25.201Z,100425.49
2022-10-10T07:32:56.517Z,100423.09
2022-10-10T07:35:23.402Z,100425.00
2022-10-10T07:37:53.774Z,100422.08
2022-10-10T07:40:20.439Z,100420.78
2022-10-10T07:42:47.148Z,100420.84
2022-10-10T07:45:13.831Z,100422.94
2022-10-10T07:47:40.635Z,100419.73
2022-10-10T07:50:07.988Z,100421.42
2022-10-10T07:52:35.539Z,100421.77
2022-10-10T07:55:02.604Z,100419.98
2022-10-10T07:57:29.731Z,100420.75
2022-10-10T07:59:56.437Z,100415.47
2022-10-10T08:02:23.150Z,100418.29
2022-10-10T08:04:50.141Z,100419.06
2022-10-10T08:07:16.859Z,100415.12
2022-10-10T08:09:43.474Z,100418.18
2022-10-10T08:12:10.160Z,100419.38
2022-10-10T08:14:36.883Z,100418.15
2022-10-10T08:17:03.548Z,100413.56
2022-10-10T08:19:30.354Z,100423.34
2022-10-10T08:21:57.178Z,100415.92
2022-10-10T08:24:23.776Z,100425.95
2022-10-10T08:26:51.204Z,100422.34
2022-10-10T08:29:18.392Z,100428.59
2022-10-10T08:31:46.552Z,100426.52
2022-10-10T08:34:13.366Z,100423.47
2022-10-10T08:36:40.091Z,100420.36
2022-10-10T08:39:07.395Z,100417.98
2022-10-10T08:41:42.918Z,100415.64
2022-10-10T08:44:31.968Z,100412.48
2022-10-10T08:47:06.979Z,100420.20
2022-10-10T08:49:36.034Z,100417.83
2022-10-10T08:52:31.655Z,100420.60
2022-10-10T08:54:59.184Z,100421.08
2022-10-10T08:57:31.050Z,100426.10
2022-10-10T09:00:05.191Z,100416.80
2022-10-10T09:02:55.288Z,100417.89
2022-10-10T09:05:40.318Z,100412.06
2022-10-10T09:08:49.311Z,100422.27
2022-10-10T09:11:15.918Z,100420.89
2022-10-10T09:13:48.899Z,100418.84
2022-10-10T09:16:33.900Z,100417.34
2022-10-10T09:19:18.359Z,100418.20
2022-10-10T09:21:45.340Z,100419.80
2022-10-10T09:24:20.279Z,100418.80
2022-10-10T09:26:49.900Z,100415.71
2022-10-10T09:29:22.433Z,100415.61
2022-10-10T09:31:51.660Z,100414.42
2022-10-10T09:34:20.832Z,100419.38
2022-10-10T09:36:47.620Z,100413.17
2022-10-10T09:39:14.196Z,100417.37
2022-10-10T09:41:46.962Z,100417.64
2022-10-10T09:44:14.343Z,100411.80
2022-10-10T09:46:41.088Z,100417.36
2022-10-10T09:49:07.671Z,100406.61
2022-10-10T09:51:34.383Z,100409.73
2022-10-10T09:54:01.077Z,100409.80
2022-10-10T09:56:28.522Z,100408.27
2022-10-10T09:58:55.485Z,100403.95
2022-10-10T10:01:27.377Z,100404.81
2022-10-10T10:04:23.495Z,100396.95
2022-10-10T10:06:53.548Z,100390.99
2022-10-10T10:09:21.193Z,100397.27
2022-10-10T10:11:54.747Z,100391.51
2022-10-10T10:14:51.126Z,100390.52
2022-10-10T10:17:19.052Z,100391.45
2022-10-10T10:19:46.298Z,100393.73
2022-10-10T10:22:39.441Z,100390.02
2022-10-10T10:25:34.984Z,100399.09
2022-10-10T10:28:10.895Z,100394.94
2022-10-10T10:30:40.765Z,100381.30
2022-10-10T10:33:45.575Z,100387.53
2022-10-10T10:36:39.829Z,100386.77
2022-10-10T10:39:28.165Z,100383.50
2022-10-10T10:41:59.175Z,100377.45
2022-10-10T10:44:28.729Z,100386.65
2022-10-10T10:47:20.427Z,100378.94
2022-10-10T10:50:10.478Z,100383.08
2022-10-10T10:52:43.299Z,100377.12
2022-10-10T10:55:26.102Z,100378.27
2022-10-10T10:58:58.041Z,100359.33
2022-10-10T11:01:28.714Z,100374.33
2022-10-10T11:05:18.450Z,100376.86
2022-10-10T11:07:20.613Z,100374.38
2022-10-10T11:09:56.608Z,100378.16
2022-10-10T11:12:29.057Z,100382.82
2022-10-10T11:15:01.885Z,100379.36
2022-10-10T11:17:39.118Z,100378.70
2022-10-10T11:20:34.869Z,100381.14
2022-10-10T11:23:11.581Z,100387.18
2022-10-10T11:25:47.769Z,100381.42
2022-10-10T11:28:21.138Z,100375.05
2022-10-10T11:30:51.728Z,100377.15
2022-10-10T11:33:23.023Z,100378.09
2022-10-10T11:36:01.839Z,100372.66
2022-10-10T11:38:35.089Z,100378.48
2022-10-10T11:41:03.427Z,100383.36
2022-10-10T11:43:32.017Z,100378.84
2022-10-10T11:46:43.749Z,100377.95
2022-10-10T11:49:13.322Z,100385.76
2022-10-10T11:52:14.953Z,100379.46
2022-10-10T11:54:50.451Z,100383.70
2022-10-10T11:57:23.119Z,100385.91
2022-10-10T11:59:52.888Z,100386.05
2022-10-10T12:02:31.314Z,100392.00
2022-10-10T12:04:58.094Z,100387.40
2022-10-10T12:07:57.664Z,100391.55
2022-10-10T12:10:27.148Z,100397.27
2022-10-10T12:12:54.983Z,100387.23
2022-10-10T12:15:40.842Z,100386.13
2022-10-10T12:18:27.769Z,100387.06
2022-10-10T12:21:05.013Z,100387.19
2022-10-10T12:23:31.786Z,100381.96
2022-10-10T12:25:58.804Z,100384.54
2022-10-10T12:28:28.502Z,100393.94
2022-10-10T12:30:58.263Z,100391.23
2022-10-10T12:33:30.996Z,100388.39
2022-10-10T12:35:57.710Z,100386.79
2022-10-10T12:38:25.129Z,100386.25
2022-10-10T12:40:57.697Z,100384.52
2022-10-10T12:44:03.308Z,100384.88
2022-10-10T12:46:33.338Z,100388.83
2022-10-10T12:49:14.085Z,100382.16
2022-10-10T12:51:40.911Z,100383.83
2022-10-10T12:54:08.370Z,100381.49
2022-10-10T12:56:42.635Z,100382.00
2022-10-10T12:59:20.724Z,100377.98
2022-10-10T13:01:52.032Z,100380.40
2022-10-10T13:04:18.847Z,100376.59
2022-10-10T13:06:45.690Z,100377.39
2022-10-10T13:09:22.029Z,100379.25
2022-10-10T13:11:58.742Z,100378.15
2022-10-10T13:14:26.304Z,100383.62
2022-10-10T13:16:53.121Z,100381.58
2022-10-10T13:19:22.056Z,100378.82
2022-10-10T13:21:49.524Z,100385.70
2022-10-10T13:24:17.750Z,100386.16
2022-10-10T13:26:49.229Z,100382.75
2022-10-10T13:29:26.846Z,100379.35
2022-10-10T13:31:54.664Z,100381.73
2022-10-10T13:34:27.232Z,100376.04
2022-10-10T13:36:56.128Z,100376.96
2022-10-10T13:39:23.438Z,100380.84
2022-10-10T13:41:50.260Z,100375.64
2022-10-10T13:44:22.028Z,100376.17
2022-10-10T13:46:48.754Z,100380.70
2022-10-10T13:49:23.886Z,100377.66
2022-10-10T13:52:02.353Z,100378.49
2022-10-10T13:54:45.437Z,100378.84
2022-10-10T13:57:14.649Z,100378.90
2022-10-10T13:59:41.906Z,100386.98
2022-10-10T14:02:11.756Z,100376.42
2022-10-10T14:04:39.670Z,100382.98
2022-10-10T14:07:10.910Z,100378.77
2022-10-10T14:09:47.958Z,100381.52
2022-10-10T14:12:25.002Z,100383.79
2022-10-10T14:14:52.849Z,100387.26
2022-10-10T14:17:19.643Z,100388.38
2022-10-10T14:19:46.996Z,100387.02
2022-10-10T14:22:13.853Z,100387.64
2022-10-10T14:24:40.566Z,100385.89
2022-10-10T14:27:16.326Z,100389.77
2022-10-10T14:29:43.106Z,100384.74
2022-10-10T14:32:10.944Z,100388.33
2022-10-10T14:34:37.918Z,100388.58
2022-10-10T14:37:04.906Z,100388.40
2022-10-10T14:39:31.598Z,100385.71
2022-10-10T14:41:59.082Z,100385.30
2022-10-10T14:44:25.782Z,100381.63
2022-10-10T14:46:52.346Z,100382.27
2022-10-10T14:49:19.835Z,100387.58
2022-10-10T14:51:47.338Z,100386.26
2022-10-10T14:54:14.404Z,100385.48
2022-10-10T14:57:09.081Z,100389.60
2022-10-10T14:59:47.331Z,100391.38
2022-10-10T15:02:17.977Z,100393.03
2022-10-10T15:04:44.616Z,100391.16
2022-10-10T15:07:13.844Z,100394.54
2022-10-10T15:09:56.595Z,100392.55
2022-10-10T15:12:29.494Z,100398.69
2022-10-10T15:14:56.304Z,100396.27
2022-10-10T15:20:31.915Z,100401.00
2022-10-10T15:23:05.408Z,100399.17
2022-10-10T15:25:34.169Z,100409.60
2022-10-10T15:28:02.001Z,100409.64
2022-10-10T15:30:28.733Z,100412.85
2022-10-10T15:32:56.892Z,100416.45
2022-10-10T15:35:23.678Z,100411.27
2022-10-10T15:37:50.346Z,100413.60
2022-10-10T15:40:19.181Z,100417.08
2022-10-10T15:42:46.555Z,100415.63
2022-10-10T15:45:14.903Z,100415.98
2022-10-10T15:47:49.766Z,100419.43
2022-10-10T15:50:16.311Z,100422.44
2022-10-10T15:52:42.888Z,100427.78
2022-10-10T15:55:09.468Z,100429.27
2022-10-10T15:57:35.907Z,100430.63
2022-10-10T16:00:03.389Z,100431.86
2022-10-10T16:02:40.325Z,100433.38
2022-10-10T16:05:09.324Z,100437.23
2022-10-10T16:07:46.773Z,100436.05
2022-10-10T16:10:14.969Z,100439.14
2022-10-10T16:12:44.204Z,100440.48
2022-10-10T16:15:11.080Z,100440.10
2022-10-10T16:17:38.014Z,100443.90
2022-10-10T16:20:05.926Z,100442.60
2022-10-10T16:22:33.572Z,100444.58
2022-10-10T16:27:46.591Z,100448.03
2022-10-10T16:30:13.252Z,100449.46
2022-10-10T16:32:42.592Z,100453.99
2022-10-10T16:35:10.303Z,100450.91
2022-10-10T16:37:37.473Z,100452.17
2022-10-10T16:40:05.118Z,100451.73
2022-10-10T16:42:31.773Z,100455.27
2022-10-10T16:44:58.898Z,100459.87
2022-10-10T16:47:25.608Z,100459.88
2022-10-10T16:49:52.387Z,100458.93
2022-10-10T16:52:18.868Z,100458.54
2022-10-10T16:54:48.717Z,100461.20
2022-10-10T16:57:17.875Z,100459.85
2022-10-10T16:59:44.535Z,100461.02
2022-10-10T17:02:11.132Z,100463.41
2022-10-10T17:04:37.653Z,100463.64
2022-10-10T17:07:04.964Z,100458.46
2022-10-10T17:09:31.530Z,100465.17
2022-10-10T17:11:59.352Z,100465.59
2022-10-10T17:14:25.945Z,100466.41
2022-10-10T17:19:40.669Z,100459.32
2022-10-10T17:22:07.318Z,100462.45
2022-10-10T17:24:33.810Z,100461.09
2022-10-10T17:27:00.251Z,100465.54
2022-10-10T17:29:26.743Z,100467.86
2022-10-10T17:31:53.189Z,100464.68
2022-10-10T17:34:19.642Z,100465.80
2022-10-10T17:36:46.388Z,100463.30
2022-10-10T17:39:13.013Z,100466.25
2022-10-10T17:41:39.891Z,100464.17
2022-10-10T17:44:09.760Z,100469.23
2022-10-10T17:46:37.187Z,100463.63
2022-10-10T17:49:04.677Z,100468.48
2022-10-10T17:51:31.504Z,100473.12
2022-10-10T17:53:58.934Z,100473.04
2022-10-10T17:56:25.680Z,100468.06
2022-10-10T17:58:52.118Z,100470.10
2022-10-10T18:01:18.985Z,100468.63
2022-10-10T18:03:45.608Z,100468.38
2022-10-10T18:06:14.780Z,100468.13
2022-10-10T18:08:49.360Z,100468.53
2022-10-10T18:11:21.388Z,100464.39
2022-10-10T18:13:47.907Z,100468.67
2022-10-10T18:16:16.501Z,100472.58
2022-10-10T18:18:49.609Z,100468.00
2022-10-10T18:21:18.160Z,100470.46
2022-10-10T18:23:44.698Z,100472.02
2022-10-10T18:26:24.964Z,100473.77
2022-10-10T18:28:54.954Z,100473.63
2022-10-10T18:31:26.903Z,100468.50
2022-10-10T18:33:53.670Z,100465.54
2022-10-10T18:36:25.142Z,100462.16
2022-10-10T18:38:51.873Z,100455.42
2022-10-10T18:41:21.845Z,100460.28
2022-10-10T18:43:48.946Z,100462.79
2022-10-10T18:46:17.731Z,100460.58
2022-10-10T18:48:44.475Z,100459.34
2022-10-10T18:51:11.746Z,100462.98
2022-10-10T18:53:39.232Z,100469.04
2022-10-10T18:56:06.117Z,100464.92
2022-10-10T18:58:33.997Z,100468.34
2022-10-10T19:01:02.267Z,100470.38
2022-10-10T19:03:29.987Z,100468.05
2022-10-10T19:05:56.575Z,100467.75
2022-10-10T19:08:23.302Z,100466.66
2022-10-10T19:10:50.101Z,100468.34
2022-10-10T19:13:16.588Z,100464.25
2022-10-10T19:15:43.154Z,100466.73
2022-10-10T19:18:10.236Z,100468.30
2022-10-10T19:20:38.502Z,100469.84
2022-10-10T19:23:05.557Z,100472.68
2022-10-10T19:25:39.952Z,100472.13
2022-10-10T19:28:06.819Z,100472.88
2022-10-10T19:30:40.604Z,100478.26
2022-10-10T19:33:07.243Z,100470.48
2022-10-10T19:35:41.592Z,100477.59
2022-10-10T19:38:09.139Z,100474.82
2022-10-10T19:40:42.504Z,100475.87
2022-10-10T19:43:09.062Z,100477.15
2022-10-10T19:45:43.177Z,100470.52
2022-10-10T19:48:09.750Z,100474.61
2022-10-10T19:50:40.040Z,100475.16
2022-10-10T19:53:06.941Z,100477.33
2022-10-10T19:55:33.453Z,100479.83
2022-10-10T19:57:59.985Z,100471.63
2022-10-10T20:00:26.713Z,100475.77
2022-10-10T20:02:53.146Z,100476.63
2022-10-10T20:05:20.102Z,100471.57
2022-10-10T20:07:50.723Z,100468.06
2022-10-10T20:10:18.505Z,100468.33
2022-10-10T20:12:45.854Z,100470.27
2022-10-10T20:15:12.374Z,100469.13
2022-10-10T20:17:39.013Z,100466.88
2022-10-10T20:20:06.089Z,100468.97
2022-10-10T20:22:33.803Z,100464.79
2022-10-10T20:25:01.426Z,100462.15
2022-10-10T20:27:31.224Z,100463.27
2022-10-10T20:29:58.004Z,100465.98
2022-10-10T20:32:26.147Z,100468.95
2022-10-10T20:34:52.787Z,100469.90
2022-10-10T20:37:19.242Z,100465.57
2022-10-10T20:39:45.967Z,100466.84
2022-10-10T20:42:12.513Z,100464.79
2022-10-10T20:44:39.834Z,100460.16
2022-10-10T20:47:06.328Z,100459.11
2022-10-10T20:49:32.956Z,100459.77
2022-10-10T20:51:59.969Z,100461.69
2022-10-10T20:54:26.619Z,100460.23
2022-10-10T20:56:53.155Z,100460.91
2022-10-10T20:59:20.372Z,100460.46
2022-10-10T21:01:47.195Z,100458.02
2022-10-10T21:04:13.965Z,100456.94
2022-10-10T21:06:49.349Z,100461.17
2022-10-10T21:09:15.902Z,100461.30
2022-10-10T21:11:43.501Z,100454.90
2022-10-10T21:14:11.291Z,100453.17
2022-10-10T21:16:38.721Z,100450.98
2022-10-10T21:19:11.159Z,100448.76
2022-10-10T21:21:37.983Z,100448.80
2022-10-10T21:24:05.362Z,100447.02
2022-10-10T21:26:31.916Z,100444.64
2022-10-10T21:29:00.018Z,100446.67
2022-10-10T21:31:28.745Z,100446.60
2022-10-10T21:33:59.315Z,100442.12
2022-10-10T21:36:26.084Z,100442.98
2022-10-10T21:38:56.279Z,100440.77
2022-10-10T21:41:22.973Z,100438.71
2022-10-10T21:43:54.125Z,100439.98
2022-10-10T21:46:27.146Z,100440.25
2022-10-10T21:48:54.726Z,100434.89
2022-10-10T21:51:21.233Z,100435.03
2022-10-10T21:53:48.353Z,100435.21
2022-10-10T21:56:14.978Z,100432.28
2022-10-10T21:58:42.103Z,100433.39
2022-10-10T22:01:16.520Z,100432.47
2022-10-10T22:03:43.712Z,100433.45
2022-10-10T22:06:13.758Z,100428.86
2022-10-10T22:08:43.239Z,100426.98
2022-10-10T22:11:13.055Z,100426.05
2022-10-10T22:13:39.722Z,100425.04
2022-10-10T22:16:08.390Z,100423.23
2022-10-10T22:18:35.740Z,100420.88
2022-10-10T22:21:04.224Z,100421.41
2022-10-10T22:23:30.867Z,100415.72
2022-10-10T22:25:57.542Z,100418.35
2022-10-10T22:28:24.131Z,100420.26
2022-10-10T22:30:50.820Z,100418.70
2022-10-10T22:33:17.654Z,100418.23
2022-10-10T22:35:44.360Z,100416.13
2022-10-10T22:38:15.148Z,100417.98
2022-10-10T22:40:43.311Z,100417.33
2022-10-10T22:43:09.830Z,100418.20
2022-10-10T22:45:36.289Z,100416.29
2022-10-10T22:48:03.007Z,100412.98
2022-10-10T22:50:30.556Z,100415.61
2022-10-10T22:52:57.028Z,100409.54
2022-10-10T22:55:23.784Z,100407.09
2022-10-10T22:57:50.489Z,100408.58
2022-10-10T23:00:17.385Z,100408.38
2022-10-10T23:02:44.072Z,100409.39
2022-10-10T23:05:10.591Z,100406.20
2022-10-10T23:07:39.704Z,100407.70
2022-10-10T23:10:07.865Z,100404.19
2022-10-10T23:12:34.830Z,100402.38
2022-10-10T23:15:01.666Z,100393.98
2022-10-10T23:17:28.158Z,100397.38
2022-10-10T23:19:56.677Z,100392.01
2022-10-10T23:22:23.216Z,100390.04
2022-10-10T23:24:51.806Z,100391.83
2022-10-10T23:27:18.348Z,100384.73
2022-10-10T23:29:45.399Z,100388.96
2022-10-10T23:32:11.973Z,100387.85
2022-10-10T23:34:39.412Z,100389.15
2022-10-10T23:37:06.072Z,100391.29
2022-10-10T23:39:32.610Z,100389.76
2022-10-10T23:41:59.056Z,100390.64
2022-10-10T23:44:25.671Z,100389.55
2022-10-10T23:46:52.154Z,100386.09
2022-10-10T23:49:19.977Z,100383.65
2022-10-10T23:51:46.789Z,100377.52
2022-10-10T23:54:13.265Z,100378.77
2022-10-10T23:56:40.598Z,100375.23
2022-10-10T23:59:07.102Z,100372.52
